Nova Venecia, Brazil
Current Conditions -  °F | °C
As of 4:00 AM on Monday 22 Dec 2014 (Local Time) from SBVT Reporting Station
Scattered Clouds Scattered Clouds  
Wind Chill: 77°   Ceiling: Unl
Heat Index: 79°   Visibility: 6mi
Dew Point: 66°   Wind: 10mph
Humidity: 69%   Direction: 20°NNE
Pressure: 29.88"   Gusts: NA
Location:  18.7°S, 40.4°W
Report Text: SBVT 220600Z 02009KT 9999 FEW025 SCT100 25/19 Q1012
Loading
Personal Weather Stations






























Interactive Weather Map New forecast layout! Learn more

10-Day Weather Forecast

Advertisements
Track Severe Weather on mobile